Terminal Aerodrome Forecast
Issued by NWS Green Bay, WI

Home | Current Version | Previous Version | Graphics & Text | Print | Product List | Glossary On
Versions: 1 2 3 4 5 6 7 8 9 10 11 12 13 14 15 16
000
FTUS43 KGRB 172328
TAFGRB
TAF
KGRB 172328Z 1800/1824 33007KT P6SM BKN040
     FM181300 03009KT P6SM BKN027
     FM181500 04012KT P6SM OVC014
     FM181700 03014G19KT P6SM OVC011
     FM182100 03016G24KT P6SM -SNRA OVC012=

USA.gov is the U.S. government's official web portal to all federal, state and local government web resources and services.